Impacts TAF Board INFO
FOR SITUATIONAL AWARENESS. NOT TO BE USED FOR FLIGHT PLANNING PURPOSES.
IDs:

KBWI - Baltimore-Washington, MD, US

Issued at 2338 UTC 24 Feb 2018
Updated at 2352 UTC 24 Feb 2018
Potential Impact None Slight Moderate High
Time<<25/12Z 25/13Z 25/14Z 25/15Z 25/16Z 25/17Z 25/18Z 25/19Z 25/20Z 25/21Z 25/22Z 25/23Z 26/00Z>>
Type PRVL PRVL PRVL PRVL PRVL PRVL PRVL PRVL PRVL PRVL PRVL PRVL PRVL
VIS 2 2 2 2 2 2 >6 >6 >6 >6 >6 >6 >6
CIG 3 3 3 35 35 35 70 70 70 70 70 200 200
Cover OVC OVC OVC OVC OVC OVC OVC OVC OVC OVC OVC BKN BKN
FltCat LIFR LIFR LIFR IFR IFR IFR VFR VFR VFR VFR VFR VFR VFR
WX -SHRA -SHDZ BR -SHRA -SHDZ BR -SHRA -SHDZ BR -SHRA BR -SHRA BR -SHRA BR -- -- -- -- -- -- --
WDir 80 80 80 180 180 180 220 220 220 220 220 270 270
WSpd 6 6 6 5 5 5 10 10 10 10 10 7 7
WGst -- -- -- -- -- -- 19 19 19 19 19 -- --

Raw TAF
KBWI 242338Z 2500/2606 06007KT 4SM -SHRADZ BR BKN010 OVC025
  FM250300 07006KT 5SM -SHRADZ BR BKN008 OVC025
  FM250700 08006KT 2SM -SHRADZ BR BKN003 OVC025
  FM251500 18005KT 2SM -SHRA BR SCT025 OVC035
  FM251800 22010G19KT P6SM SCT025 OVC070
  FM252300 27007KT P6SM SCT150 BKN200


METAR Board
Radar Display
Forecast Discussion

FOR SITUATIONAL AWARENESS. NOT TO BE USED FOR FLIGHT PLANNING PURPOSES.